sensor_id;sensor_type;location;lat;lon;timestamp;P1;durP1;ratioP1;P2;durP2;ratioP2
48596;SDS011;34382;43.160;24.148;2023-09-19T00:01:25;9.77;;;4.57;;
48596;SDS011;34382;43.160;24.148;2023-09-19T00:02:58;9.27;;;4.47;;
48596;SDS011;34382;43.160;24.148;2023-09-19T00:04:33;8.63;;;4.35;;
48596;SDS011;34382;43.160;24.148;2023-09-19T00:06:05;10.60;;;4.22;;
48596;SDS011;34382;43.160;24.148;2023-09-19T00:07:39;8.60;;;4.18;;
48596;SDS011;34382;43.160;24.148;2023-09-19T00:09:12;9.43;;;4.70;;
48596;SDS011;34382;43.160;24.148;2023-09-19T00:10:44;9.32;;;4.45;;
48596;SDS011;34382;43.160;24.148;2023-09-19T00:12:16;8.50;;;4.18;;
48596;SDS011;34382;43.160;24.148;2023-09-19T00:13:49;8.23;;;4.07;;
48596;SDS011;34382;43.160;24.148;2023-09-19T00:15:22;9.13;;;4.03;;
48596;SDS011;34382;43.160;24.148;2023-09-19T00:16:55;8.52;;;4.40;;
48596;SDS011;34382;43.160;24.148;2023-09-19T00:18:27;9.73;;;3.90;;
48596;SDS011;34382;43.160;24.148;2023-09-19T00:34:23;9.05;;;4.55;;
48596;SDS011;34382;43.160;24.148;2023-09-19T00:35:56;9.85;;;4.13;;
48596;SDS011;34382;43.160;24.148;2023-09-19T00:37:32;8.82;;;4.20;;
48596;SDS011;34382;43.160;24.148;2023-09-19T00:39:04;11.63;;;4.75;;
48596;SDS011;34382;43.160;24.148;2023-09-19T00:40:37;8.55;;;4.40;;
48596;SDS011;34382;43.160;24.148;2023-09-19T00:42:09;8.70;;;4.30;;
48596;SDS011;34382;43.160;24.148;2023-09-19T00:43:51;9.27;;;4.43;;
48596;SDS011;34382;43.160;24.148;2023-09-19T00:45:23;9.50;;;4.95;;
48596;SDS011;34382;43.160;24.148;2023-09-19T00:46:55;8.80;;;4.25;;
48596;SDS011;34382;43.160;24.148;2023-09-19T00:48:27;8.68;;;4.10;;
48596;SDS011;34382;43.160;24.148;2023-09-19T00:49:59;8.55;;;4.68;;
48596;SDS011;34382;43.160;24.148;2023-09-19T00:51:31;8.27;;;4.00;;
48596;SDS011;34382;43.160;24.148;2023-09-19T00:53:04;9.48;;;4.38;;
48596;SDS011;34382;43.160;24.148;2023-09-19T00:54:39;9.20;;;4.00;;
48596;SDS011;34382;43.160;24.148;2023-09-19T00:56:11;7.35;;;3.83;;
48596;SDS011;34382;43.160;24.148;2023-09-19T00:57:43;9.57;;;4.28;;
48596;SDS011;34382;43.160;24.148;2023-09-19T00:59:16;10.48;;;4.43;;
48596;SDS011;34382;43.160;24.148;2023-09-19T01:00:48;8.45;;;3.88;;
48596;SDS011;34382;43.160;24.148;2023-09-19T01:02:21;9.40;;;4.72;;
48596;SDS011;34382;43.160;24.148;2023-09-19T01:03:53;8.80;;;4.38;;
48596;SDS011;34382;43.160;24.148;2023-09-19T01:05:25;8.35;;;3.83;;
48596;SDS011;34382;43.160;24.148;2023-09-19T01:06:57;9.63;;;4.15;;
48596;SDS011;34382;43.160;24.148;2023-09-19T01:08:30;7.68;;;3.90;;
48596;SDS011;34382;43.160;24.148;2023-09-19T01:10:03;8.82;;;4.47;;
48596;SDS011;34382;43.160;24.148;2023-09-19T01:11:42;9.00;;;3.88;;
48596;SDS011;34382;43.160;24.148;2023-09-19T01:13:31;9.25;;;4.00;;
48596;SDS011;34382;43.160;24.148;2023-09-19T01:15:22;9.43;;;4.40;;
48596;SDS011;34382;43.160;24.148;2023-09-19T01:17:20;7.53;;;3.55;;
48596;SDS011;34382;43.160;24.148;2023-09-19T01:22:37;8.23;;;4.25;;
48596;SDS011;34382;43.160;24.148;2023-09-19T01:28:45;8.43;;;4.00;;
48596;SDS011;34382;43.160;24.148;2023-09-19T01:30:26;8.73;;;3.97;;
48596;SDS011;34382;43.160;24.148;2023-09-19T01:32:04;8.57;;;4.10;;
48596;SDS011;34382;43.160;24.148;2023-09-19T01:33:53;8.60;;;4.25;;
48596;SDS011;34382;43.160;24.148;2023-09-19T01:35:29;11.73;;;4.40;;
48596;SDS011;34382;43.160;24.148;2023-09-19T01:37:01;7.75;;;4.05;;
48596;SDS011;34382;43.160;24.148;2023-09-19T01:38:33;8.93;;;4.15;;
48596;SDS011;34382;43.160;24.148;2023-09-19T01:40:07;9.32;;;4.20;;
48596;SDS011;34382;43.160;24.148;2023-09-19T01:41:56;9.05;;;4.18;;
48596;SDS011;34382;43.160;24.148;2023-09-19T01:43:51;8.88;;;4.15;;
48596;SDS011;34382;43.160;24.148;2023-09-19T01:47:31;8.65;;;4.20;;
48596;SDS011;34382;43.160;24.148;2023-09-19T01:49:27;8.48;;;4.20;;
48596;SDS011;34382;43.160;24.148;2023-09-19T01:51:06;9.10;;;4.00;;
48596;SDS011;34382;43.160;24.148;2023-09-19T01:52:42;10.18;;;4.32;;
48596;SDS011;34382;43.160;24.148;2023-09-19T01:54:25;9.73;;;4.60;;
48596;SDS011;34382;43.160;24.148;2023-09-19T01:55:59;7.32;;;3.45;;
48596;SDS011;34382;43.160;24.148;2023-09-19T01:57:34;7.20;;;3.90;;
48596;SDS011;34382;43.160;24.148;2023-09-19T01:59:13;8.32;;;4.00;;
48596;SDS011;34382;43.160;24.148;2023-09-19T02:00:45;8.88;;;4.30;;
48596;SDS011;34382;43.160;24.148;2023-09-19T02:02:20;8.68;;;4.10;;
48596;SDS011;34382;43.160;24.148;2023-09-19T02:03:54;7.88;;;4.18;;
48596;SDS011;34382;43.160;24.148;2023-09-19T02:05:28;8.25;;;4.15;;
48596;SDS011;34382;43.160;24.148;2023-09-19T02:07:00;8.25;;;4.40;;
48596;SDS011;34382;43.160;24.148;2023-09-19T02:08:32;8.75;;;4.45;;
48596;SDS011;34382;43.160;24.148;2023-09-19T02:11:38;9.00;;;4.28;;
48596;SDS011;34382;43.160;24.148;2023-09-19T02:13:10;7.85;;;3.78;;
48596;SDS011;34382;43.160;24.148;2023-09-19T02:14:43;8.85;;;4.18;;
48596;SDS011;34382;43.160;24.148;2023-09-19T02:16:16;8.25;;;3.97;;
48596;SDS011;34382;43.160;24.148;2023-09-19T02:17:48;8.27;;;4.25;;
48596;SDS011;34382;43.160;24.148;2023-09-19T02:19:21;14.07;;;5.15;;
48596;SDS011;34382;43.160;24.148;2023-09-19T02:20:53;9.65;;;4.70;;
48596;SDS011;34382;43.160;24.148;2023-09-19T02:22:26;8.55;;;4.00;;
48596;SDS011;34382;43.160;24.148;2023-09-19T02:27:04;9.82;;;4.15;;
48596;SDS011;34382;43.160;24.148;2023-09-19T02:28:36;10.63;;;4.68;;
48596;SDS011;34382;43.160;24.148;2023-09-19T02:30:09;8.90;;;4.28;;
48596;SDS011;34382;43.160;24.148;2023-09-19T02:31:42;14.63;;;4.75;;
48596;SDS011;34382;43.160;24.148;2023-09-19T02:33:14;8.20;;;4.13;;
48596;SDS011;34382;43.160;24.148;2023-09-19T02:34:46;7.45;;;3.88;;
48596;SDS011;34382;43.160;24.148;2023-09-19T02:36:19;9.95;;;4.45;;
48596;SDS011;34382;43.160;24.148;2023-09-19T02:37:51;10.13;;;4.45;;
48596;SDS011;34382;43.160;24.148;2023-09-19T02:39:23;9.88;;;4.68;;
48596;SDS011;34382;43.160;24.148;2023-09-19T02:40:55;8.38;;;4.07;;
48596;SDS011;34382;43.160;24.148;2023-09-19T02:42:28;7.95;;;4.32;;
48596;SDS011;34382;43.160;24.148;2023-09-19T02:44:00;8.35;;;3.85;;
48596;SDS011;34382;43.160;24.148;2023-09-19T02:45:33;7.80;;;4.25;;
48596;SDS011;34382;43.160;24.148;2023-09-19T02:47:06;9.20;;;4.10;;
48596;SDS011;34382;43.160;24.148;2023-09-19T02:48:38;8.85;;;4.15;;
48596;SDS011;34382;43.160;24.148;2023-09-19T02:50:11;8.10;;;4.07;;
48596;SDS011;34382;43.160;24.148;2023-09-19T02:51:44;7.50;;;4.15;;
48596;SDS011;34382;43.160;24.148;2023-09-19T02:53:17;8.98;;;4.50;;
48596;SDS011;34382;43.160;24.148;2023-09-19T02:56:22;9.23;;;4.43;;
48596;SDS011;34382;43.160;24.148;2023-09-19T02:57:56;10.05;;;4.45;;
48596;SDS011;34382;43.160;24.148;2023-09-19T02:59:28;9.15;;;4.50;;
48596;SDS011;34382;43.160;24.148;2023-09-19T03:01:10;9.90;;;4.93;;
48596;SDS011;34382;43.160;24.148;2023-09-19T03:02:47;8.20;;;4.07;;
48596;SDS011;34382;43.160;24.148;2023-09-19T03:04:22;7.80;;;3.78;;
48596;SDS011;34382;43.160;24.148;2023-09-19T03:05:54;9.35;;;4.22;;
48596;SDS011;34382;43.160;24.148;2023-09-19T03:07:26;7.90;;;3.92;;
48596;SDS011;34382;43.160;24.148;2023-09-19T03:08:59;9.35;;;4.22;;
48596;SDS011;34382;43.160;24.148;2023-09-19T03:10:31;9.68;;;4.72;;
48596;SDS011;34382;43.160;24.148;2023-09-19T03:12:04;10.90;;;4.15;;
48596;SDS011;34382;43.160;24.148;2023-09-19T03:13:37;8.85;;;4.30;;
48596;SDS011;34382;43.160;24.148;2023-09-19T03:15:10;9.63;;;4.28;;
48596;SDS011;34382;43.160;24.148;2023-09-19T03:16:43;11.37;;;4.70;;
48596;SDS011;34382;43.160;24.148;2023-09-19T03:18:16;8.13;;;4.32;;
48596;SDS011;34382;43.160;24.148;2023-09-19T03:19:48;8.50;;;3.72;;
48596;SDS011;34382;43.160;24.148;2023-09-19T03:21:20;10.52;;;4.07;;
48596;SDS011;34382;43.160;24.148;2023-09-19T03:22:53;9.20;;;4.15;;
48596;SDS011;34382;43.160;24.148;2023-09-19T03:24:25;9.93;;;4.03;;
48596;SDS011;34382;43.160;24.148;2023-09-19T03:25:58;9.70;;;4.50;;
48596;SDS011;34382;43.160;24.148;2023-09-19T03:27:30;8.25;;;4.20;;
48596;SDS011;34382;43.160;24.148;2023-09-19T03:29:05;9.20;;;4.35;;
48596;SDS011;34382;43.160;24.148;2023-09-19T03:30:38;9.10;;;4.07;;
48596;SDS011;34382;43.160;24.148;2023-09-19T03:32:10;8.40;;;3.78;;
48596;SDS011;34382;43.160;24.148;2023-09-19T03:33:43;7.72;;;3.78;;
48596;SDS011;34382;43.160;24.148;2023-09-19T03:35:15;7.90;;;4.13;;
48596;SDS011;34382;43.160;24.148;2023-09-19T03:36:48;8.15;;;4.18;;
48596;SDS011;34382;43.160;24.148;2023-09-19T03:38:20;7.68;;;3.70;;
48596;SDS011;34382;43.160;24.148;2023-09-19T03:39:53;7.47;;;3.88;;
48596;SDS011;34382;43.160;24.148;2023-09-19T03:41:25;8.25;;;4.38;;
48596;SDS011;34382;43.160;24.148;2023-09-19T03:43:00;12.25;;;4.78;;
48596;SDS011;34382;43.160;24.148;2023-09-19T03:44:32;8.05;;;4.25;;
48596;SDS011;34382;43.160;24.148;2023-09-19T03:46:04;11.07;;;4.72;;
48596;SDS011;34382;43.160;24.148;2023-09-19T03:47:37;8.85;;;4.40;;
48596;SDS011;34382;43.160;24.148;2023-09-19T03:49:10;7.93;;;4.10;;
48596;SDS011;34382;43.160;24.148;2023-09-19T03:50:42;8.98;;;4.35;;
48596;SDS011;34382;43.160;24.148;2023-09-19T03:52:15;9.73;;;4.05;;
48596;SDS011;34382;43.160;24.148;2023-09-19T03:53:47;9.55;;;4.30;;
48596;SDS011;34382;43.160;24.148;2023-09-19T03:55:20;9.10;;;4.57;;
48596;SDS011;34382;43.160;24.148;2023-09-19T03:56:53;9.90;;;4.50;;
48596;SDS011;34382;43.160;24.148;2023-09-19T03:58:25;9.00;;;4.70;;
48596;SDS011;34382;43.160;24.148;2023-09-19T03:59:57;9.02;;;4.40;;
48596;SDS011;34382;43.160;24.148;2023-09-19T04:01:29;8.13;;;4.50;;
48596;SDS011;34382;43.160;24.148;2023-09-19T04:03:03;8.23;;;4.43;;
48596;SDS011;34382;43.160;24.148;2023-09-19T04:04:38;10.82;;;4.60;;
48596;SDS011;34382;43.160;24.148;2023-09-19T04:06:10;10.45;;;4.65;;
48596;SDS011;34382;43.160;24.148;2023-09-19T04:07:43;8.75;;;4.43;;
48596;SDS011;34382;43.160;24.148;2023-09-19T04:10:48;8.82;;;4.53;;
48596;SDS011;34382;43.160;24.148;2023-09-19T04:12:20;8.40;;;4.05;;
48596;SDS011;34382;43.160;24.148;2023-09-19T04:13:53;8.75;;;4.28;;
48596;SDS011;34382;43.160;24.148;2023-09-19T04:15:25;8.52;;;3.92;;
48596;SDS011;34382;43.160;24.148;2023-09-19T04:16:57;10.25;;;4.07;;
48596;SDS011;34382;43.160;24.148;2023-09-19T04:18:29;8.50;;;3.83;;
48596;SDS011;34382;43.160;24.148;2023-09-19T04:20:05;8.32;;;4.40;;
48596;SDS011;34382;43.160;24.148;2023-09-19T04:21:39;10.25;;;4.60;;
48596;SDS011;34382;43.160;24.148;2023-09-19T04:23:12;8.75;;;4.30;;
48596;SDS011;34382;43.160;24.148;2023-09-19T04:24:45;8.18;;;3.95;;
48596;SDS011;34382;43.160;24.148;2023-09-19T04:26:17;10.13;;;4.55;;
48596;SDS011;34382;43.160;24.148;2023-09-19T04:27:49;8.93;;;4.30;;
48596;SDS011;34382;43.160;24.148;2023-09-19T04:29:21;8.52;;;4.45;;
48596;SDS011;34382;43.160;24.148;2023-09-19T04:30:53;11.30;;;4.22;;
48596;SDS011;34382;43.160;24.148;2023-09-19T04:32:29;9.13;;;4.30;;
48596;SDS011;34382;43.160;24.148;2023-09-19T04:34:04;8.55;;;4.38;;
48596;SDS011;34382;43.160;24.148;2023-09-19T04:35:36;9.38;;;3.95;;
48596;SDS011;34382;43.160;24.148;2023-09-19T04:37:10;7.93;;;4.18;;
48596;SDS011;34382;43.160;24.148;2023-09-19T04:38:42;9.50;;;4.30;;
48596;SDS011;34382;43.160;24.148;2023-09-19T04:40:17;8.40;;;4.40;;
48596;SDS011;34382;43.160;24.148;2023-09-19T04:41:51;8.25;;;4.22;;
48596;SDS011;34382;43.160;24.148;2023-09-19T04:43:24;8.35;;;4.28;;
48596;SDS011;34382;43.160;24.148;2023-09-19T04:44:57;7.95;;;3.92;;
48596;SDS011;34382;43.160;24.148;2023-09-19T04:46:31;8.57;;;4.15;;
48596;SDS011;34382;43.160;24.148;2023-09-19T04:48:04;8.90;;;4.50;;
48596;SDS011;34382;43.160;24.148;2023-09-19T04:49:38;9.15;;;4.40;;
48596;SDS011;34382;43.160;24.148;2023-09-19T04:51:11;8.30;;;4.50;;
48596;SDS011;34382;43.160;24.148;2023-09-19T04:52:44;8.82;;;4.47;;
48596;SDS011;34382;43.160;24.148;2023-09-19T04:54:17;10.13;;;4.78;;
48596;SDS011;34382;43.160;24.148;2023-09-19T04:55:50;9.02;;;4.55;;
48596;SDS011;34382;43.160;24.148;2023-09-19T04:57:24;9.75;;;4.40;;
48596;SDS011;34382;43.160;24.148;2023-09-19T04:59:00;8.65;;;4.25;;
48596;SDS011;34382;43.160;24.148;2023-09-19T05:00:32;10.07;;;4.93;;
48596;SDS011;34382;43.160;24.148;2023-09-19T05:02:06;9.05;;;4.47;;
48596;SDS011;34382;43.160;24.148;2023-09-19T05:05:12;10.05;;;5.07;;
48596;SDS011;34382;43.160;24.148;2023-09-19T05:06:50;8.23;;;4.35;;
48596;SDS011;34382;43.160;24.148;2023-09-19T05:08:22;9.40;;;4.22;;
48596;SDS011;34382;43.160;24.148;2023-09-19T05:09:56;7.80;;;4.28;;
48596;SDS011;34382;43.160;24.148;2023-09-19T05:11:28;9.23;;;4.68;;
48596;SDS011;34382;43.160;24.148;2023-09-19T05:13:01;8.75;;;4.45;;
48596;SDS011;34382;43.160;24.148;2023-09-19T05:14:34;9.07;;;5.10;;
48596;SDS011;34382;43.160;24.148;2023-09-19T05:16:06;10.35;;;5.07;;
48596;SDS011;34382;43.160;24.148;2023-09-19T05:17:44;8.63;;;4.95;;
48596;SDS011;34382;43.160;24.148;2023-09-19T05:19:23;8.25;;;4.95;;
48596;SDS011;34382;43.160;24.148;2023-09-19T05:20:56;9.05;;;4.32;;
48596;SDS011;34382;43.160;24.148;2023-09-19T05:22:28;9.50;;;4.88;;
48596;SDS011;34382;43.160;24.148;2023-09-19T05:24:00;9.77;;;5.03;;
48596;SDS011;34382;43.160;24.148;2023-09-19T05:25:33;21.95;;;5.82;;
48596;SDS011;34382;43.160;24.148;2023-09-19T05:27:08;10.75;;;5.05;;
48596;SDS011;34382;43.160;24.148;2023-09-19T05:28:41;8.55;;;4.50;;
48596;SDS011;34382;43.160;24.148;2023-09-19T05:30:15;9.15;;;4.82;;
48596;SDS011;34382;43.160;24.148;2023-09-19T05:31:47;9.50;;;4.80;;
48596;SDS011;34382;43.160;24.148;2023-09-19T05:33:21;9.82;;;4.70;;
48596;SDS011;34382;43.160;24.148;2023-09-19T05:34:53;9.95;;;5.15;;
48596;SDS011;34382;43.160;24.148;2023-09-19T05:36:28;9.88;;;4.47;;
48596;SDS011;34382;43.160;24.148;2023-09-19T05:39:33;9.63;;;4.90;;
48596;SDS011;34382;43.160;24.148;2023-09-19T05:41:05;13.82;;;5.70;;
48596;SDS011;34382;43.160;24.148;2023-09-19T05:42:38;9.95;;;5.15;;
48596;SDS011;34382;43.160;24.148;2023-09-19T05:44:11;10.73;;;5.63;;
48596;SDS011;34382;43.160;24.148;2023-09-19T05:45:43;9.43;;;5.35;;
48596;SDS011;34382;43.160;24.148;2023-09-19T05:47:17;10.73;;;5.15;;
48596;SDS011;34382;43.160;24.148;2023-09-19T05:48:52;10.40;;;5.00;;
48596;SDS011;34382;43.160;24.148;2023-09-19T05:50:24;12.02;;;5.50;;
48596;SDS011;34382;43.160;24.148;2023-09-19T05:51:56;11.48;;;5.85;;
48596;SDS011;34382;43.160;24.148;2023-09-19T05:53:30;9.98;;;5.10;;
48596;SDS011;34382;43.160;24.148;2023-09-19T05:55:05;12.80;;;5.50;;
48596;SDS011;34382;43.160;24.148;2023-09-19T05:56:39;11.10;;;5.70;;
48596;SDS011;34382;43.160;24.148;2023-09-19T05:58:13;11.68;;;5.40;;
48596;SDS011;34382;43.160;24.148;2023-09-19T05:59:45;10.65;;;5.43;;
48596;SDS011;34382;43.160;24.148;2023-09-19T06:01:18;11.98;;;6.07;;
48596;SDS011;34382;43.160;24.148;2023-09-19T06:02:51;11.63;;;5.73;;
48596;SDS011;34382;43.160;24.148;2023-09-19T06:04:28;9.80;;;5.20;;
48596;SDS011;34382;43.160;24.148;2023-09-19T06:06:02;10.18;;;5.15;;
48596;SDS011;34382;43.160;24.148;2023-09-19T06:07:34;10.57;;;5.88;;
48596;SDS011;34382;43.160;24.148;2023-09-19T06:09:11;9.60;;;5.28;;
48596;SDS011;34382;43.160;24.148;2023-09-19T06:10:43;12.35;;;5.80;;
48596;SDS011;34382;43.160;24.148;2023-09-19T06:12:15;10.32;;;5.75;;
48596;SDS011;34382;43.160;24.148;2023-09-19T06:15:21;12.40;;;5.35;;
48596;SDS011;34382;43.160;24.148;2023-09-19T06:16:56;10.68;;;5.18;;
48596;SDS011;34382;43.160;24.148;2023-09-19T06:18:28;9.20;;;4.90;;
48596;SDS011;34382;43.160;24.148;2023-09-19T06:20:01;10.32;;;5.43;;
48596;SDS011;34382;43.160;24.148;2023-09-19T06:21:36;10.25;;;5.25;;
48596;SDS011;34382;43.160;24.148;2023-09-19T06:23:09;9.07;;;5.20;;
48596;SDS011;34382;43.160;24.148;2023-09-19T06:24:41;9.45;;;4.85;;
48596;SDS011;34382;43.160;24.148;2023-09-19T06:26:13;11.95;;;5.55;;
48596;SDS011;34382;43.160;24.148;2023-09-19T06:27:51;10.93;;;5.38;;
48596;SDS011;34382;43.160;24.148;2023-09-19T06:29:25;10.10;;;4.88;;
48596;SDS011;34382;43.160;24.148;2023-09-19T06:30:58;10.38;;;5.47;;
48596;SDS011;34382;43.160;24.148;2023-09-19T06:32:31;9.90;;;5.47;;
48596;SDS011;34382;43.160;24.148;2023-09-19T06:34:03;12.50;;;5.60;;
48596;SDS011;34382;43.160;24.148;2023-09-19T06:35:35;10.20;;;5.03;;
48596;SDS011;34382;43.160;24.148;2023-09-19T06:37:07;11.05;;;5.32;;
48596;SDS011;34382;43.160;24.148;2023-09-19T06:38:40;12.00;;;5.20;;
48596;SDS011;34382;43.160;24.148;2023-09-19T06:40:13;11.98;;;5.18;;
48596;SDS011;34382;43.160;24.148;2023-09-19T06:41:45;9.50;;;4.38;;
48596;SDS011;34382;43.160;24.148;2023-09-19T06:43:20;9.20;;;4.68;;
48596;SDS011;34382;43.160;24.148;2023-09-19T06:44:52;8.32;;;4.28;;
48596;SDS011;34382;43.160;24.148;2023-09-19T06:46:24;10.73;;;5.22;;
48596;SDS011;34382;43.160;24.148;2023-09-19T06:47:57;11.93;;;5.10;;
48596;SDS011;34382;43.160;24.148;2023-09-19T06:49:31;8.45;;;4.50;;
48596;SDS011;34382;43.160;24.148;2023-09-19T06:51:04;9.98;;;4.85;;
48596;SDS011;34382;43.160;24.148;2023-09-19T06:52:36;9.18;;;4.82;;
48596;SDS011;34382;43.160;24.148;2023-09-19T06:54:09;8.13;;;4.35;;
48596;SDS011;34382;43.160;24.148;2023-09-19T06:55:42;10.95;;;5.07;;
48596;SDS011;34382;43.160;24.148;2023-09-19T06:57:16;10.13;;;5.05;;
48596;SDS011;34382;43.160;24.148;2023-09-19T06:58:48;10.50;;;5.00;;
48596;SDS011;34382;43.160;24.148;2023-09-19T07:00:20;9.82;;;5.03;;
48596;SDS011;34382;43.160;24.148;2023-09-19T07:01:56;9.65;;;4.63;;
48596;SDS011;34382;43.160;24.148;2023-09-19T07:03:31;10.85;;;4.82;;
48596;SDS011;34382;43.160;24.148;2023-09-19T07:05:05;10.32;;;5.03;;
48596;SDS011;34382;43.160;24.148;2023-09-19T07:06:37;9.63;;;5.32;;
48596;SDS011;34382;43.160;24.148;2023-09-19T07:08:10;10.68;;;5.13;;
48596;SDS011;34382;43.160;24.148;2023-09-19T07:09:44;10.88;;;5.70;;
48596;SDS011;34382;43.160;24.148;2023-09-19T07:11:17;10.40;;;5.32;;
48596;SDS011;34382;43.160;24.148;2023-09-19T08:55:05;8.18;;;3.92;;
48596;SDS011;34382;43.160;24.148;2023-09-19T08:56:41;8.00;;;3.90;;
48596;SDS011;34382;43.160;24.148;2023-09-19T08:58:14;9.10;;;4.43;;
48596;SDS011;34382;43.160;24.148;2023-09-19T08:59:51;9.30;;;4.07;;
48596;SDS011;34382;43.160;24.148;2023-09-19T09:01:23;8.02;;;4.30;;
48596;SDS011;34382;43.160;24.148;2023-09-19T09:02:59;8.98;;;4.47;;
48596;SDS011;34382;43.160;24.148;2023-09-19T09:04:34;9.65;;;4.22;;
48596;SDS011;34382;43.160;24.148;2023-09-19T09:06:07;9.75;;;4.43;;
48596;SDS011;34382;43.160;24.148;2023-09-19T09:07:51;8.93;;;4.18;;
48596;SDS011;34382;43.160;24.148;2023-09-19T09:09:24;9.07;;;4.72;;
48596;SDS011;34382;43.160;24.148;2023-09-19T09:10:56;8.47;;;4.20;;
48596;SDS011;34382;43.160;24.148;2023-09-19T09:12:29;8.95;;;4.50;;
48596;SDS011;34382;43.160;24.148;2023-09-19T09:14:02;8.77;;;3.90;;
48596;SDS011;34382;43.160;24.148;2023-09-19T09:15:35;8.03;;;3.90;;
48596;SDS011;34382;43.160;24.148;2023-09-19T09:17:08;9.80;;;4.18;;
48596;SDS011;34382;43.160;24.148;2023-09-19T09:21:51;7.97;;;4.32;;
48596;SDS011;34382;43.160;24.148;2023-09-19T09:23:23;9.23;;;4.03;;
48596;SDS011;34382;43.160;24.148;2023-09-19T09:24:57;10.07;;;4.22;;
48596;SDS011;34382;43.160;24.148;2023-09-19T09:26:42;8.30;;;4.28;;
48596;SDS011;34382;43.160;24.148;2023-09-19T09:31:27;8.70;;;3.92;;
48596;SDS011;34382;43.160;24.148;2023-09-19T09:33:09;7.90;;;3.67;;
48596;SDS011;34382;43.160;24.148;2023-09-19T09:34:44;7.43;;;3.53;;
48596;SDS011;34382;43.160;24.148;2023-09-19T09:36:16;7.60;;;3.65;;
48596;SDS011;34382;43.160;24.148;2023-09-19T09:37:58;8.50;;;3.95;;
48596;SDS011;34382;43.160;24.148;2023-09-19T09:39:35;9.02;;;3.95;;
48596;SDS011;34382;43.160;24.148;2023-09-19T09:42:39;8.82;;;4.35;;
48596;SDS011;34382;43.160;24.148;2023-09-19T09:44:16;7.00;;;3.47;;
48596;SDS011;34382;43.160;24.148;2023-09-19T09:45:50;8.82;;;3.72;;
48596;SDS011;34382;43.160;24.148;2023-09-19T09:47:58;8.40;;;3.60;;
48596;SDS011;34382;43.160;24.148;2023-09-19T09:49:35;9.68;;;3.72;;
48596;SDS011;34382;43.160;24.148;2023-09-19T09:51:07;8.37;;;3.87;;
48596;SDS011;34382;43.160;24.148;2023-09-19T09:52:46;7.78;;;3.63;;
48596;SDS011;34382;43.160;24.148;2023-09-19T09:54:19;8.30;;;3.42;;
48596;SDS011;34382;43.160;24.148;2023-09-19T09:57:37;7.25;;;3.63;;
48596;SDS011;34382;43.160;24.148;2023-09-19T09:59:13;8.40;;;3.70;;
48596;SDS011;34382;43.160;24.148;2023-09-19T10:00:53;9.25;;;3.70;;
48596;SDS011;34382;43.160;24.148;2023-09-19T10:02:29;7.90;;;3.70;;
48596;SDS011;34382;43.160;24.148;2023-09-19T10:04:08;9.05;;;4.30;;
48596;SDS011;34382;43.160;24.148;2023-09-19T10:05:43;9.10;;;3.85;;
48596;SDS011;34382;43.160;24.148;2023-09-19T10:07:51;8.98;;;3.75;;
48596;SDS011;34382;43.160;24.148;2023-09-19T10:09:22;8.63;;;3.80;;
48596;SDS011;34382;43.160;24.148;2023-09-19T10:10:56;8.18;;;3.50;;
48596;SDS011;34382;43.160;24.148;2023-09-19T10:12:42;7.10;;;3.58;;
48596;SDS011;34382;43.160;24.148;2023-09-19T10:14:16;7.20;;;3.40;;
48596;SDS011;34382;43.160;24.148;2023-09-19T10:15:49;7.20;;;3.58;;
48596;SDS011;34382;43.160;24.148;2023-09-19T10:17:23;7.80;;;3.53;;
48596;SDS011;34382;43.160;24.148;2023-09-19T10:18:56;8.85;;;4.10;;
48596;SDS011;34382;43.160;24.148;2023-09-19T10:20:30;8.80;;;3.78;;
48596;SDS011;34382;43.160;24.148;2023-09-19T10:22:14;9.20;;;3.58;;
48596;SDS011;34382;43.160;24.148;2023-09-19T10:23:49;7.60;;;3.60;;
48596;SDS011;34382;43.160;24.148;2023-09-19T10:25:27;8.07;;;3.78;;
48596;SDS011;34382;43.160;24.148;2023-09-19T10:27:02;8.40;;;3.90;;
48596;SDS011;34382;43.160;24.148;2023-09-19T10:28:36;8.23;;;3.83;;
48596;SDS011;34382;43.160;24.148;2023-09-19T10:30:10;7.28;;;3.67;;
48596;SDS011;34382;43.160;24.148;2023-09-19T10:31:43;7.22;;;3.50;;
48596;SDS011;34382;43.160;24.148;2023-09-19T10:33:23;7.47;;;3.38;;
48596;SDS011;34382;43.160;24.148;2023-09-19T10:34:58;8.48;;;3.40;;
48596;SDS011;34382;43.160;24.148;2023-09-19T10:36:32;8.90;;;4.03;;
48596;SDS011;34382;43.160;24.148;2023-09-19T10:38:09;9.40;;;3.83;;
48596;SDS011;34382;43.160;24.148;2023-09-19T10:39:45;8.98;;;3.65;;
48596;SDS011;34382;43.160;24.148;2023-09-19T10:41:19;7.78;;;3.60;;
48596;SDS011;34382;43.160;24.148;2023-09-19T10:42:53;7.68;;;3.40;;
48596;SDS011;34382;43.160;24.148;2023-09-19T10:44:27;7.25;;;3.22;;
48596;SDS011;34382;43.160;24.148;2023-09-19T10:46:00;6.63;;;3.00;;
48596;SDS011;34382;43.160;24.148;2023-09-19T10:47:35;7.40;;;2.97;;
48596;SDS011;34382;43.160;24.148;2023-09-19T10:49:09;7.28;;;3.13;;
48596;SDS011;34382;43.160;24.148;2023-09-19T10:50:47;7.80;;;2.92;;
48596;SDS011;34382;43.160;24.148;2023-09-19T10:52:23;7.88;;;3.00;;
48596;SDS011;34382;43.160;24.148;2023-09-19T10:53:59;6.72;;;3.00;;
48596;SDS011;34382;43.160;24.148;2023-09-19T10:55:39;8.27;;;2.80;;
48596;SDS011;34382;43.160;24.148;2023-09-19T10:57:12;7.50;;;2.80;;
48596;SDS011;34382;43.160;24.148;2023-09-19T10:58:48;6.15;;;2.85;;
48596;SDS011;34382;43.160;24.148;2023-09-19T11:00:21;6.72;;;2.80;;
48596;SDS011;34382;43.160;24.148;2023-09-19T11:01:55;5.85;;;2.65;;
48596;SDS011;34382;43.160;24.148;2023-09-19T11:03:33;6.28;;;2.70;;
48596;SDS011;34382;43.160;24.148;2023-09-19T11:05:12;6.45;;;2.92;;
48596;SDS011;34382;43.160;24.148;2023-09-19T11:28:47;6.55;;;2.92;;
48596;SDS011;34382;43.160;24.148;2023-09-19T11:30:25;7.70;;;3.20;;
48596;SDS011;34382;43.160;24.148;2023-09-19T11:31:58;6.30;;;2.80;;
48596;SDS011;34382;43.160;24.148;2023-09-19T11:33:34;6.10;;;2.70;;
48596;SDS011;34382;43.160;24.148;2023-09-19T11:35:09;6.43;;;2.90;;
48596;SDS011;34382;43.160;24.148;2023-09-19T11:36:41;8.25;;;2.55;;
48596;SDS011;34382;43.160;24.148;2023-09-19T11:38:16;6.50;;;2.75;;
48596;SDS011;34382;43.160;24.148;2023-09-19T11:43:29;5.70;;;2.35;;
48596;SDS011;34382;43.160;24.148;2023-09-19T11:45:06;6.75;;;3.05;;
48596;SDS011;34382;43.160;24.148;2023-09-19T11:48:23;6.40;;;2.60;;
48596;SDS011;34382;43.160;24.148;2023-09-19T11:49:59;6.90;;;2.72;;
48596;SDS011;34382;43.160;24.148;2023-09-19T11:51:37;6.15;;;2.72;;
48596;SDS011;34382;43.160;24.148;2023-09-19T11:53:12;6.82;;;2.72;;
48596;SDS011;34382;43.160;24.148;2023-09-19T11:56:23;6.45;;;2.75;;
48596;SDS011;34382;43.160;24.148;2023-09-19T11:57:57;7.03;;;2.95;;
48596;SDS011;34382;43.160;24.148;2023-09-19T11:59:30;6.13;;;2.47;;
48596;SDS011;34382;43.160;24.148;2023-09-19T12:01:05;7.18;;;2.45;;
48596;SDS011;34382;43.160;24.148;2023-09-19T12:02:40;4.88;;;2.30;;
48596;SDS011;34382;43.160;24.148;2023-09-19T12:04:14;7.35;;;3.00;;
48596;SDS011;34382;43.160;24.148;2023-09-19T12:05:46;6.68;;;3.03;;
48596;SDS011;34382;43.160;24.148;2023-09-19T12:07:19;6.65;;;2.55;;
48596;SDS011;34382;43.160;24.148;2023-09-19T12:08:51;6.40;;;2.50;;
48596;SDS011;34382;43.160;24.148;2023-09-19T12:10:25;6.38;;;2.75;;
48596;SDS011;34382;43.160;24.148;2023-09-19T12:11:59;7.22;;;2.97;;
48596;SDS011;34382;43.160;24.148;2023-09-19T12:13:31;6.77;;;2.40;;
48596;SDS011;34382;43.160;24.148;2023-09-19T12:15:05;7.28;;;2.63;;
48596;SDS011;34382;43.160;24.148;2023-09-19T12:16:38;7.13;;;2.63;;